Time;durP1;ratioP1;P1;durP2;ratioP2;P2;SDS_P1;SDS_P2;PMS_P1;PMS_P2;Temp;Humidity;BMP_temperature;BMP_pressure;BME280_temperature;BME280_humidity;BME280_pressure;Samples;Min_cycle;Max_cycle;Signal;HPM_P1;HPM_P2
2021/12/08 00:00:28;;;;;;;3.72;1.35;;;20.90;72.90;;;;;;5064695;28;20032;-74
2021/12/08 00:02:56;;;;;;;4.90;1.38;;;20.90;72.90;;;;;;5068206;28;20025;-76
2021/12/08 00:05:23;;;;;;;5.55;1.33;;;20.90;73.00;;;;;;5064886;28;20383;-75
2021/12/08 00:07:50;;;;;;;6.45;1.30;;;20.90;73.00;;;;;;5066454;28;20070;-74
2021/12/08 00:10:50;;;;;;;5.18;1.85;;;20.90;72.80;;;;;;5067013;28;20448;-76
2021/12/08 00:13:07;;;;;;;5.63;4.30;;;20.90;72.60;;;;;;5065009;28;20048;-74
2021/12/08 00:15:40;;;;;;;6.82;4.50;;;20.80;72.30;;;;;;5065573;28;20016;-73
2021/12/08 00:18:16;;;;;;;6.68;2.90;;;20.90;72.20;;;;;;5047258;28;20032;-74
2021/12/08 00:20:46;;;;;;;4.28;1.80;;;20.80;72.10;;;;;;5063798;28;20111;-73
2021/12/08 00:23:15;;;;;;;3.17;1.42;;;20.80;72.90;;;;;;5067863;28;20023;-74
2021/12/08 00:25:42;;;;;;;3.83;1.27;;;20.80;73.10;;;;;;5062901;28;20040;-75
2021/12/08 00:28:09;;;;;;;6.97;1.77;;;20.80;73.10;;;;;;5064368;28;20550;-75
2021/12/08 00:30:38;;;;;;;8.05;1.70;;;20.80;73.40;;;;;;5064766;28;20123;-75
2021/12/08 00:33:05;;;;;;;11.70;1.95;;;20.80;73.60;;;;;;5065030;28;20036;-73
2021/12/08 00:35:32;;;;;;;7.10;1.60;;;20.80;73.60;;;;;;5068140;28;20021;-76
2021/12/08 00:38:00;;;;;;;7.30;2.47;;;20.80;73.40;;;;;;5065704;28;20024;-72
2021/12/08 00:40:28;;;;;;;5.03;1.48;;;20.80;73.30;;;;;;5065333;28;20035;-73
2021/12/08 00:42:55;;;;;;;5.20;1.63;;;20.80;73.30;;;;;;5066774;28;20020;-73
2021/12/08 00:45:23;;;;;;;8.88;1.63;;;20.80;73.20;;;;;;5070157;28;20048;-75
2021/12/08 00:47:52;;;;;;;6.97;2.05;;;20.70;73.10;;;;;;5070593;28;20518;-74
2021/12/08 00:50:22;;;;;;;2.58;1.25;;;20.70;73.30;;;;;;5063555;28;20500;-73
2021/12/08 00:52:51;;;;;;;3.47;0.98;;;20.70;73.20;;;;;;5066802;28;20112;-73
2021/12/08 00:55:19;;;;;;;7.95;2.50;;;20.80;73.00;;;;;;5066791;28;20017;-76
2021/12/08 00:57:45;;;;;;;5.25;1.45;;;20.70;72.90;;;;;;5067629;28;20024;-73
2021/12/08 01:00:17;;;;;;;2.33;0.80;;;20.70;73.00;;;;;;5063951;28;20033;-75
2021/12/08 01:02:44;;;;;;;1.77;0.85;;;20.70;72.90;;;;;;5073158;28;20030;-74
2021/12/08 01:05:14;;;;;;;2.72;0.93;;;20.70;72.80;;;;;;5068854;28;20025;-74
2021/12/08 01:07:41;;;;;;;4.10;0.85;;;20.70;72.60;;;;;;5065835;28;20036;-76
2021/12/08 01:10:11;;;;;;;3.08;1.27;;;20.70;72.50;;;;;;5068097;28;20021;-73
2021/12/08 01:12:38;;;;;;;4.85;1.33;;;20.80;72.40;;;;;;5071442;28;20086;-76
2021/12/08 01:15:05;;;;;;;6.75;2.03;;;20.70;72.60;;;;;;5067401;28;20031;-75
2021/12/08 01:17:32;;;;;;;3.05;1.00;;;20.70;72.90;;;;;;5061286;28;20033;-75
2021/12/08 01:19:59;;;;;;;6.90;1.60;;;20.70;72.90;;;;;;5062606;28;20028;-75
2021/12/08 01:22:26;;;;;;;5.70;2.05;;;20.70;73.00;;;;;;5049082;28;20024;-75
2021/12/08 01:24:52;;;;;;;3.85;1.10;;;20.70;73.00;;;;;;5066389;28;20017;-72
2021/12/08 01:27:19;;;;;;;7.63;2.67;;;20.70;73.20;;;;;;5071919;28;20038;-73
2021/12/08 01:29:48;;;;;;;22.63;14.80;;;20.70;73.40;;;;;;5071376;28;20075;-74
2021/12/08 01:32:15;;;;;;;10.25;3.70;;;20.70;73.40;;;;;;5069378;28;20040;-73
2021/12/08 01:34:41;;;;;;;2.40;1.30;;;20.70;73.40;;;;;;5073211;28;20375;-71
2021/12/08 01:37:08;;;;;;;5.88;1.83;;;20.70;73.40;;;;;;5065440;28;20021;-75
2021/12/08 01:39:34;;;;;;;3.72;1.17;;;20.70;73.40;;;;;;5069311;28;20439;-75
2021/12/08 01:42:01;;;;;;;3.97;0.93;;;20.70;73.30;;;;;;5070983;28;20029;-73
2021/12/08 01:47:12;;;;;;;1.88;1.20;;;20.70;73.00;;;;;;5070762;28;20060;-74
2021/12/08 01:49:39;;;;;;;1.45;0.60;;;20.70;72.70;;;;;;5067324;28;20012;-74
2021/12/08 01:52:06;;;;;;;2.15;0.77;;;20.60;72.30;;;;;;5065998;28;20024;-74
2021/12/08 01:54:32;;;;;;;2.63;1.23;;;20.70;72.00;;;;;;5069648;28;20146;-74
2021/12/08 01:57:00;;;;;;;3.63;1.13;;;20.60;71.60;;;;;;5071188;28;20024;-74
2021/12/08 01:59:27;;;;;;;4.93;1.27;;;20.70;72.00;;;;;;5069698;28;20024;-74
2021/12/08 02:01:53;;;;;;;5.63;1.35;;;20.60;72.00;;;;;;5073983;28;20017;-73
2021/12/08 02:04:20;;;;;;;4.90;1.60;;;20.60;72.30;;;;;;5068568;28;20196;-74
2021/12/08 02:06:47;;;;;;;4.85;1.00;;;20.70;72.50;;;;;;5068866;28;20029;-73
2021/12/08 02:09:16;;;;;;;8.75;1.35;;;20.60;72.60;;;;;;5065070;28;20068;-73
2021/12/08 02:11:52;;;;;;;3.50;1.13;;;20.60;72.70;;;;;;5072060;28;20028;-74
2021/12/08 02:14:19;;;;;;;4.60;1.40;;;20.60;72.60;;;;;;5069534;28;20296;-73
2021/12/08 02:16:46;;;;;;;6.53;1.58;;;20.60;72.90;;;;;;5072673;28;20034;-73
2021/12/08 02:19:13;;;;;;;5.65;1.98;;;20.60;72.90;;;;;;5070819;28;20716;-75
2021/12/08 02:21:42;;;;;;;5.63;1.55;;;20.60;73.30;;;;;;5065663;28;20025;-74
2021/12/08 02:24:14;;;;;;;2.72;0.98;;;20.60;73.40;;;;;;5072093;28;20060;-74
2021/12/08 02:26:43;;;;;;;4.10;1.20;;;20.60;73.30;;;;;;5070166;28;20020;-73
2021/12/08 02:29:26;;;;;;;2.95;0.68;;;20.60;73.30;;;;;;5066863;28;20490;-72
2021/12/08 02:32:03;;;;;;;4.53;0.88;;;20.60;73.20;;;;;;5066161;28;20055;-74
2021/12/08 02:48:15;;;;;;;11.30;1.48;;;20.50;73.60;;;;;;5070824;28;20032;-74
2021/12/08 02:50:43;;;;;;;2.85;0.85;;;20.50;73.60;;;;;;5069528;28;20120;-75
2021/12/08 02:53:13;;;;;;;3.47;1.73;;;20.50;73.80;;;;;;5066927;28;20074;-73
2021/12/08 02:55:41;;;;;;;5.65;1.40;;;20.40;73.90;;;;;;5070860;28;20117;-74
2021/12/08 02:58:08;;;;;;;7.22;1.55;;;20.40;74.10;;;;;;5067142;28;20464;-74
2021/12/08 03:00:39;;;;;;;4.32;1.00;;;20.50;74.10;;;;;;5071536;28;20024;-74
2021/12/08 03:03:06;;;;;;;4.65;1.08;;;20.40;74.20;;;;;;5069120;28;20115;-72
2021/12/08 03:05:33;;;;;;;4.70;1.30;;;20.40;74.40;;;;;;5067414;28;20087;-75
2021/12/08 03:08:00;;;;;;;8.70;1.25;;;20.50;74.30;;;;;;5063723;28;20024;-76
2021/12/08 03:10:30;;;;;;;6.10;1.30;;;20.40;75.30;;;;;;5069371;28;20008;-74
2021/12/08 03:12:57;;;;;;;4.03;1.00;;;20.40;74.50;;;;;;5064960;28;20082;-73
2021/12/08 03:15:24;;;;;;;4.68;1.38;;;20.40;75.10;;;;;;5063625;28;20556;-74
2021/12/08 03:17:50;;;;;;;7.45;1.40;;;20.40;74.30;;;;;;5069567;28;20024;-73
2021/12/08 03:20:27;;;;;;;5.57;1.80;;;20.40;74.40;;;;;;5071144;28;20352;-74
2021/12/08 03:23:00;;;;;;;9.95;2.05;;;20.40;74.20;;;;;;5067560;28;20029;-74
2021/12/08 03:25:28;;;;;;;1.67;0.90;;;20.40;74.20;;;;;;5051121;28;20029;-74
2021/12/08 03:28:07;;;;;;;4.28;1.17;;;20.30;74.70;;;;;;5067289;28;20039;-73
2021/12/08 03:30:40;;;;;;;9.15;1.45;;;20.30;73.80;;;;;;5069080;28;20500;-74
2021/12/08 03:33:08;;;;;;;9.55;2.20;;;20.30;74.00;;;;;;5069353;28;20036;-73
2021/12/08 03:35:36;;;;;;;8.57;1.70;;;20.30;74.40;;;;;;5069810;28;20024;-73
2021/12/08 03:38:02;;;;;;;5.38;1.05;;;20.30;74.60;;;;;;5067262;28;20024;-73
2021/12/08 03:40:29;;;;;;;8.90;1.80;;;20.30;74.90;;;;;;5067772;28;20567;-73
2021/12/08 03:42:57;;;;;;;4.93;1.33;;;20.30;74.90;;;;;;5064099;28;20495;-75
2021/12/08 03:45:25;;;;;;;5.35;1.30;;;20.30;75.10;;;;;;5063530;28;20117;-71
2021/12/08 03:48:00;;;;;;;7.68;1.88;;;20.20;74.90;;;;;;5068240;28;20027;-72
2021/12/08 03:50:27;;;;;;;4.10;1.37;;;20.30;75.00;;;;;;5070858;28;20493;-72
2021/12/08 03:52:54;;;;;;;6.05;1.48;;;20.30;75.00;;;;;;5067495;28;20293;-75
2021/12/08 03:55:20;;;;;;;5.20;1.38;;;20.20;75.00;;;;;;5069091;28;20020;-77
2021/12/08 03:57:47;;;;;;;3.88;1.15;;;20.30;75.10;;;;;;5067635;28;20038;-76
2021/12/08 04:00:20;;;;;;;4.15;1.25;;;20.20;75.10;;;;;;5069598;28;20103;-78
2021/12/08 04:02:47;;;;;;;25.75;20.80;;;20.20;74.80;;;;;;5065421;28;20020;-73
2021/12/08 04:05:20;;;;;;;19.95;10.95;;;20.20;74.60;;;;;;5062762;28;20074;-73
2021/12/08 04:08:31;;;;;;;16.60;5.35;;;20.30;74.20;;;;;;5062077;28;20034;-72
2021/12/08 04:11:01;;;;;;;7.68;2.60;;;20.30;74.70;;;;;;5045076;28;20023;-73
2021/12/08 04:13:37;;;;;;;7.47;1.58;;;20.30;75.10;;;;;;5063923;28;20648;-72
2021/12/08 04:16:04;;;;;;;3.55;1.58;;;20.20;75.10;;;;;;5064264;28;20032;-73
2021/12/08 04:18:32;;;;;;;5.85;2.70;;;20.30;75.40;;;;;;5068779;28;20016;-75
2021/12/08 04:21:00;;;;;;;5.47;1.48;;;20.20;75.70;;;;;;5063920;28;20114;-71
2021/12/08 04:23:35;;;;;;;5.55;2.70;;;20.20;76.00;;;;;;5067355;28;20017;-70
2021/12/08 04:26:04;;;;;;;;;;;20.30;76.10;;;;;;5064161;28;20048;-71
2021/12/08 04:28:32;;;;;;;21.90;12.70;;;20.30;76.20;;;;;;5068174;28;20385;-70
2021/12/08 04:31:12;;;;;;;11.68;6.10;;;20.30;75.90;;;;;;5067233;28;20060;-71
2021/12/08 04:33:39;;;;;;;6.15;1.70;;;20.20;75.70;;;;;;5064780;28;20046;-72
2021/12/08 04:36:11;;;;;;;7.35;2.22;;;20.30;75.70;;;;;;5065162;28;20103;-71
2021/12/08 04:38:44;;;;;;;15.77;2.60;;;20.30;75.80;;;;;;5060635;28;20448;-70
2021/12/08 04:41:18;;;;;;;8.57;1.83;;;20.30;76.10;;;;;;5053805;28;20420;-77
2021/12/08 04:44:08;;;;;;;18.85;3.13;;;20.30;76.10;;;;;;5065538;28;20029;-70
2021/12/08 04:52:17;;;;;;;8.82;3.00;;;20.40;75.50;;;;;;5065731;28;20025;-71
2021/12/08 05:03:44;;;;;;;12.35;1.67;;;20.40;75.30;;;;;;5034968;28;20021;-71
2021/12/08 05:06:39;;;;;;;7.75;1.50;;;20.40;75.20;;;;;;5071412;28;20028;-72
2021/12/08 05:09:11;;;;;;;6.55;1.30;;;20.40;75.30;;;;;;5065729;28;20039;-73
2021/12/08 05:11:43;;;;;;;4.65;1.52;;;20.50;75.30;;;;;;5067553;28;20016;-72
2021/12/08 05:14:36;;;;;;;5.45;1.67;;;20.50;75.10;;;;;;5069287;28;20020;-72
2021/12/08 05:17:14;;;;;;;3.80;1.25;;;20.50;74.80;;;;;;5067299;28;20020;-71
2021/12/08 05:19:42;;;;;;;7.15;1.35;;;20.60;74.70;;;;;;5066358;28;20539;-72
2021/12/08 05:22:21;;;;;;;3.95;1.30;;;20.60;74.20;;;;;;5070788;28;20140;-73
2021/12/08 05:25:04;;;;;;;3.17;1.13;;;20.60;73.80;;;;;;5067344;28;20009;-73
2021/12/08 05:27:40;;;;;;;2.78;1.00;;;20.70;73.00;;;;;;5067510;28;20067;-73
2021/12/08 05:30:15;;;;;;;4.60;1.30;;;20.80;72.50;;;;;;5066008;28;20021;-72
2021/12/08 05:32:42;;;;;;;8.43;2.75;;;20.80;72.10;;;;;;5068308;28;20059;-73
2021/12/08 05:35:11;;;;;;;2.75;1.38;;;20.80;72.00;;;;;;5062831;28;20476;-72
2021/12/08 05:37:38;;;;;;;5.85;1.15;;;20.90;71.70;;;;;;5067976;28;20037;-72
2021/12/08 05:40:09;;;;;;;2.90;1.00;;;20.90;71.60;;;;;;5071418;28;20012;-72
2021/12/08 05:42:37;;;;;;;2.90;1.20;;;20.90;71.70;;;;;;5070192;28;20109;-73
2021/12/08 05:45:10;;;;;;;3.00;1.10;;;20.90;71.60;;;;;;5065419;28;20101;-72
2021/12/08 05:47:36;;;;;;;9.20;2.47;;;21.00;71.60;;;;;;5067162;28;20445;-73
2021/12/08 05:50:05;;;;;;;3.80;1.33;;;21.00;71.30;;;;;;5065647;28;20032;-73
2021/12/08 05:52:31;;;;;;;4.20;2.00;;;21.10;71.20;;;;;;5062745;28;20044;-73
2021/12/08 05:54:58;;;;;;;3.97;1.02;;;21.20;70.80;;;;;;5070052;28;20016;-73
2021/12/08 05:57:30;;;;;;;3.30;1.38;;;21.20;70.70;;;;;;5052221;28;20467;-72
2021/12/08 05:59:58;;;;;;;5.25;1.00;;;21.20;70.30;;;;;;5067284;28;20379;-73
2021/12/08 06:02:35;;;;;;;2.45;0.85;;;21.20;69.90;;;;;;5069776;28;21092;-73
2021/12/08 06:05:03;;;;;;;4.22;1.00;;;21.30;69.50;;;;;;5066695;28;20036;-73
2021/12/08 06:07:30;;;;;;;4.15;1.02;;;21.40;69.00;;;;;;5061890;28;20490;-72
2021/12/08 06:10:00;;;;;;;1.90;0.90;;;21.40;68.90;;;;;;5069153;28;20028;-73
2021/12/08 06:12:28;;;;;;;9.82;2.28;;;21.50;68.50;;;;;;5063168;28;20029;-73
2021/12/08 06:14:56;;;;;;;5.97;1.35;;;21.50;68.30;;;;;;5069578;28;20024;-72
2021/12/08 06:17:26;;;;;;;5.07;1.73;;;21.60;68.10;;;;;;5065512;28;20387;-72
2021/12/08 06:19:53;;;;;;;4.32;1.13;;;21.60;68.10;;;;;;5070272;28;20025;-72
2021/12/08 06:22:22;;;;;;;4.47;0.98;;;21.70;68.20;;;;;;5060080;28;20021;-72
2021/12/08 06:24:49;;;;;;;4.28;0.93;;;21.70;68.40;;;;;;5069289;28;20399;-72
2021/12/08 06:27:16;;;;;;;3.78;0.70;;;21.80;68.00;;;;;;5066876;28;20410;-73
2021/12/08 06:29:45;;;;;;;4.82;1.00;;;21.80;67.30;;;;;;5069003;28;20020;-73
2021/12/08 06:32:13;;;;;;;4.80;1.05;;;21.90;67.00;;;;;;5069743;28;20044;-73
2021/12/08 06:34:43;;;;;;;6.35;1.58;;;22.00;66.40;;;;;;5066792;28;20660;-73
2021/12/08 06:37:15;;;;;;;3.55;1.50;;;22.00;66.40;;;;;;5071096;28;20020;-73
2021/12/08 06:39:49;;;;;;;2.88;1.10;;;22.00;66.30;;;;;;5069025;28;20102;-72
2021/12/08 06:42:24;;;;;;;5.40;1.40;;;22.10;67.30;;;;;;5067695;28;20028;-73
2021/12/08 06:44:53;;;;;;;4.93;1.02;;;22.10;66.30;;;;;;5065077;28;20024;-74
2021/12/08 06:47:24;;;;;;;3.17;1.10;;;22.20;66.20;;;;;;5063292;28;20035;-74
2021/12/08 06:49:52;;;;;;;2.15;1.00;;;22.20;65.90;;;;;;5069379;28;20017;-73
2021/12/08 06:52:23;;;;;;;7.32;1.23;;;22.20;65.40;;;;;;5065772;28;20029;-74
2021/12/08 06:55:06;;;;;;;6.30;1.00;;;22.30;65.40;;;;;;5069725;28;20551;-73
2021/12/08 06:57:45;;;;;;;4.75;1.27;;;22.40;65.30;;;;;;5068615;28;20107;-73
2021/12/08 07:00:35;;;;;;;6.75;1.38;;;22.40;65.10;;;;;;5064592;28;20029;-72
2021/12/08 07:04:02;;;;;;;6.22;1.92;;;22.50;64.80;;;;;;5066307;28;20039;-72
2021/12/08 07:06:29;;;;;;;3.03;1.88;;;22.60;64.70;;;;;;5056196;28;20151;-73
2021/12/08 07:08:56;;;;;;;3.50;1.23;;;22.60;64.90;;;;;;5067248;28;20051;-73
2021/12/08 07:11:24;;;;;;;3.60;1.48;;;22.70;64.40;;;;;;5065967;28;20064;-74
2021/12/08 07:13:53;;;;;;;5.10;1.65;;;22.70;63.90;;;;;;5066391;28;20044;-73
2021/12/08 07:16:32;;;;;;;4.30;1.02;;;22.80;63.90;;;;;;5067516;28;20012;-73
2021/12/08 07:19:10;;;;;;;4.38;1.60;;;22.80;63.80;;;;;;5069227;28;20028;-74
2021/12/08 07:21:42;;;;;;;5.60;1.08;;;22.90;63.30;;;;;;5067457;28;20020;-74
2021/12/08 07:24:16;;;;;;;5.05;1.45;;;23.00;62.80;;;;;;5067682;28;20024;-73
2021/12/08 07:26:44;;;;;;;7.85;1.33;;;23.00;63.00;;;;;;5043678;28;20116;-74
2021/12/08 07:29:14;;;;;;;6.80;1.65;;;23.10;63.00;;;;;;5066293;28;20031;-74
2021/12/08 07:31:51;;;;;;;3.47;1.05;;;23.10;62.90;;;;;;5067079;28;20040;-74
2021/12/08 07:34:20;;;;;;;3.25;1.17;;;23.20;62.90;;;;;;5049602;28;20503;-74
2021/12/08 07:36:51;;;;;;;5.05;1.85;;;23.30;62.70;;;;;;5068727;28;20017;-74
2021/12/08 07:39:23;;;;;;;3.08;0.93;;;23.30;62.90;;;;;;5066091;28;20496;-74
2021/12/08 07:41:54;;;;;;;2.22;1.23;;;23.40;61.80;;;;;;5067697;28;20062;-73
2021/12/08 07:44:23;;;;;;;2.75;1.35;;;23.40;61.90;;;;;;5068637;28;20114;-73
2021/12/08 07:47:03;;;;;;;6.82;1.50;;;23.50;61.90;;;;;;5067128;28;20118;-74
2021/12/08 07:49:33;;;;;;;6.47;1.40;;;23.50;61.80;;;;;;5052950;28;20063;-74
2021/12/08 07:52:02;;;;;;;4.38;1.67;;;23.60;61.60;;;;;;5063566;28;20021;-73
2021/12/08 07:54:32;;;;;;;3.45;0.75;;;23.70;61.60;;;;;;5068546;28;20013;-73
2021/12/08 07:57:01;;;;;;;6.43;2.30;;;23.80;60.70;;;;;;5062597;28;20451;-74
2021/12/08 07:59:29;;;;;;;3.85;1.33;;;23.80;60.50;;;;;;5062744;28;20020;-73
2021/12/08 08:02:06;;;;;;;4.22;1.10;;;23.90;60.10;;;;;;5069038;28;20028;-74
2021/12/08 08:04:39;;;;;;;3.70;1.73;;;23.90;59.90;;;;;;5068062;28;20025;-74
2021/12/08 08:07:08;;;;;;;8.00;1.30;;;24.00;59.90;;;;;;5064583;28;20027;-74
2021/12/08 08:09:42;;;;;;;4.65;1.17;;;24.10;59.90;;;;;;5064333;28;20028;-74
2021/12/08 08:12:13;;;;;;;2.33;1.48;;;24.10;59.90;;;;;;5065457;28;20128;-74
2021/12/08 08:14:48;;;;;;;5.95;1.83;;;24.20;59.60;;;;;;5064982;28;20032;-74
2021/12/08 08:17:18;;;;;;;4.28;1.25;;;24.30;59.40;;;;;;5068198;28;20013;-75
2021/12/08 08:19:46;;;;;;;7.15;1.40;;;24.40;59.00;;;;;;5065677;28;20483;-74
2021/12/08 08:22:19;;;;;;;2.63;1.25;;;24.40;59.10;;;;;;5063025;28;20019;-73
2021/12/08 08:24:47;;;;;;;2.65;0.90;;;24.50;59.10;;;;;;5063118;28;20067;-73
2021/12/08 08:27:15;;;;;;;4.95;1.33;;;24.50;58.70;;;;;;5065387;28;20020;-73
2021/12/08 08:29:42;;;;;;;2.15;0.90;;;24.60;58.40;;;;;;5068821;28;20031;-73
2021/12/08 08:32:19;;;;;;;1.95;0.90;;;24.60;58.00;;;;;;5067329;28;20025;-74
2021/12/08 08:34:48;;;;;;;4.03;1.10;;;24.70;57.90;;;;;;5067568;28;20039;-73
2021/12/08 08:37:16;;;;;;;5.05;1.13;;;24.70;57.20;;;;;;5066710;28;20479;-73
2021/12/08 08:39:49;;;;;;;5.00;0.98;;;24.80;57.10;;;;;;5058353;28;20070;-73
2021/12/08 08:42:21;;;;;;;10.38;1.17;;;24.90;57.00;;;;;;5066321;28;20020;-73
2021/12/08 08:45:18;;;;;;;2.85;1.02;;;24.90;57.20;;;;;;5067003;28;20594;-73
2021/12/08 08:47:55;;;;;;;4.47;1.02;;;24.90;56.70;;;;;;5058219;28;20041;-72
2021/12/08 08:50:31;;;;;;;6.70;1.30;;;25.00;56.50;;;;;;5064624;28;20376;-74
2021/12/08 08:53:00;;;;;;;5.18;1.10;;;25.10;56.30;;;;;;5064877;28;20036;-74
2021/12/08 08:55:32;;;;;;;5.00;1.00;;;25.10;55.90;;;;;;5068398;28;20566;-73
2021/12/08 08:58:00;;;;;;;5.90;1.17;;;25.20;55.80;;;;;;5064525;28;20081;-74
2021/12/08 09:00:37;;;;;;;3.88;1.10;;;25.20;55.20;;;;;;5064546;28;20029;-74
2021/12/08 09:03:08;;;;;;;2.85;0.88;;;25.30;55.30;;;;;;5064283;28;20023;-75
2021/12/08 09:05:45;;;;;;;3.92;0.85;;;25.40;54.80;;;;;;5048472;28;20040;-73
2021/12/08 09:08:15;;;;;;;4.70;0.90;;;25.50;54.50;;;;;;5067001;28;20409;-74
2021/12/08 09:10:50;;;;;;;2.05;0.90;;;25.60;54.40;;;;;;5060416;28;20060;-73
2021/12/08 09:13:27;;;;;;;4.85;1.00;;;25.70;54.80;;;;;;5062670;28;20029;-75
2021/12/08 09:16:01;;;;;;;3.15;0.90;;;25.70;55.00;;;;;;5068398;28;20225;-74
2021/12/08 09:18:50;;;;;;;3.78;1.38;;;25.80;54.60;;;;;;5065069;28;20484;-74
2021/12/08 09:21:28;;;;;;;4.75;1.13;;;25.90;54.40;;;;;;5060772;28;20108;-73
2021/12/08 09:24:22;;;;;;;1.95;1.00;;;26.00;54.50;;;;;;5067488;28;20483;-74
2021/12/08 09:26:56;;;;;;;3.22;1.02;;;26.00;54.10;;;;;;5064437;28;20459;-74
2021/12/08 09:29:48;;;;;;;2.85;1.27;;;26.20;54.00;;;;;;5068216;28;20024;-75
2021/12/08 09:32:21;;;;;;;5.13;0.90;;;26.20;53.80;;;;;;5057822;28;20059;-74
2021/12/08 09:35:02;;;;;;;3.45;0.88;;;26.30;53.70;;;;;;5065269;28;20017;-75
2021/12/08 09:37:37;;;;;;;3.13;1.15;;;26.30;53.80;;;;;;5063227;28;20367;-74
2021/12/08 09:40:33;;;;;;;8.90;2.47;;;26.40;54.00;;;;;;5065511;28;20012;-74
2021/12/08 09:43:08;;;;;;;4.32;1.05;;;26.40;53.90;;;;;;5061150;28;20020;-74
2021/12/08 09:45:49;;;;;;;2.17;1.17;;;26.50;54.00;;;;;;5062680;28;20568;-74
2021/12/08 09:48:16;;;;;;;8.85;2.03;;;26.60;53.80;;;;;;5064635;28;20353;-73
2021/12/08 09:50:43;;;;;;;3.80;1.50;;;26.60;53.90;;;;;;5070748;28;20517;-74
2021/12/08 09:53:10;;;;;;;9.07;2.05;;;26.70;53.80;;;;;;5060664;28;20032;-75
2021/12/08 09:55:37;;;;;;;7.13;1.52;;;26.70;53.90;;;;;;5069531;28;20029;-74
2021/12/08 09:58:05;;;;;;;3.42;1.52;;;26.70;53.70;;;;;;5066470;28;20016;-74
2021/12/08 10:00:37;;;;;;;8.23;1.52;;;26.80;53.50;;;;;;5066499;28;20411;-75
2021/12/08 10:03:05;;;;;;;5.80;1.67;;;26.90;54.00;;;;;;5064565;28;20025;-75
2021/12/08 10:05:34;;;;;;;5.32;1.10;;;27.00;53.80;;;;;;5068669;28;20078;-74
2021/12/08 10:08:03;;;;;;;3.47;1.13;;;27.00;53.70;;;;;;5070094;28;20464;-74
2021/12/08 10:10:30;;;;;;;9.05;1.35;;;27.10;53.70;;;;;;5068369;28;20478;-74
2021/12/08 10:12:57;;;;;;;5.97;1.55;;;27.10;53.80;;;;;;5064702;28;20064;-74
2021/12/08 10:15:25;;;;;;;9.50;1.92;;;27.10;53.40;;;;;;5070599;28;20048;-75
2021/12/08 10:17:54;;;;;;;4.70;1.42;;;27.20;53.60;;;;;;5069106;28;20501;-74
2021/12/08 10:20:36;;;;;;;5.63;1.27;;;27.20;54.10;;;;;;5060435;28;20017;-76
2021/12/08 10:23:12;;;;;;;3.15;1.23;;;27.30;53.60;;;;;;5064832;28;20025;-75
2021/12/08 10:25:43;;;;;;;6.38;1.33;;;27.40;54.10;;;;;;5067391;28;20050;-74
2021/12/08 10:28:15;;;;;;;7.43;2.03;;;27.50;54.00;;;;;;5070269;28;20024;-75
2021/12/08 10:30:51;;;;;;;6.25;1.55;;;27.50;53.50;;;;;;5070290;28;20024;-75
2021/12/08 10:33:51;;;;;;;8.05;1.40;;;27.60;53.10;;;;;;5068792;28;20388;-76
2021/12/08 10:36:43;;;;;;;9.13;2.92;;;27.60;53.30;;;;;;5065350;28;20032;-74
2021/12/08 10:39:12;;;;;;;6.70;2.42;;;27.70;53.50;;;;;;5063372;28;20361;-75
2021/12/08 10:41:57;;;;;;;6.65;1.90;;;27.80;53.10;;;;;;5068209;28;20074;-74
2021/12/08 10:45:23;;;;;;;9.02;1.92;;;27.80;53.10;;;;;;5067133;28;20541;-76
2021/12/08 10:47:38;;;;;;;5.75;1.80;;;27.90;53.50;;;;;;5059853;28;20056;-74
2021/12/08 10:55:39;;;;;;;5.38;1.85;;;28.00;53.30;;;;;;5066122;28;20099;-75
2021/12/08 10:58:07;;;;;;;8.73;2.42;;;28.00;53.50;;;;;;5061358;28;20127;-73
2021/12/08 11:00:39;;;;;;;7.47;2.47;;;28.10;53.20;;;;;;5070287;28;20059;-75
2021/12/08 11:03:12;;;;;;;12.73;2.72;;;28.10;53.00;;;;;;5068940;28;20028;-76
2021/12/08 11:05:47;;;;;;;7.82;2.33;;;28.20;53.20;;;;;;5067741;28;20012;-73
2021/12/08 11:08:22;;;;;;;10.35;2.70;;;28.20;53.90;;;;;;5069836;28;20020;-74
2021/12/08 11:10:50;;;;;;;8.82;3.10;;;28.20;53.90;;;;;;5062808;28;20034;-75
2021/12/08 11:13:22;;;;;;;6.60;2.67;;;28.20;53.60;;;;;;5067906;28;20380;-75
2021/12/08 11:16:03;;;;;;;12.48;2.50;;;28.20;53.40;;;;;;5045233;28;20380;-76
2021/12/08 11:19:10;;;;;;;7.53;2.58;;;28.30;53.50;;;;;;5062529;28;20452;-74
2021/12/08 11:22:17;;;;;;;9.52;2.58;;;28.40;53.40;;;;;;5066795;28;20131;-74
2021/12/08 11:25:24;;;;;;;6.90;2.08;;;28.40;53.80;;;;;;5052665;28;20032;-74
2021/12/08 11:28:41;;;;;;;4.07;1.90;;;28.40;53.60;;;;;;5063778;28;20017;-74
2021/12/08 11:31:48;;;;;;;7.13;2.17;;;28.40;53.60;;;;;;5063908;28;20522;-74
2021/12/08 11:34:34;;;;;;;7.22;3.90;;;28.40;53.60;;;;;;5065740;28;20064;-74
2021/12/08 11:37:40;;;;;;;7.57;2.95;;;28.50;54.40;;;;;;5065533;28;20064;-75
2021/12/08 11:40:46;;;;;;;6.95;2.30;;;28.60;53.50;;;;;;5066574;28;20093;-74
2021/12/08 11:43:52;;;;;;;8.00;3.58;;;28.60;53.10;;;;;;5064575;28;20020;-73
2021/12/08 11:47:01;;;;;;;5.82;2.28;;;28.70;53.10;;;;;;5061283;28;20047;-76
2021/12/08 11:50:07;;;;;;;7.72;2.17;;;28.70;52.70;;;;;;5064039;28;20039;-74
2021/12/08 11:53:13;;;;;;;10.82;2.95;;;28.80;53.00;;;;;;5062697;28;20041;-74
2021/12/08 11:56:19;;;;;;;8.20;2.70;;;28.80;53.10;;;;;;5068492;28;20387;-73
2021/12/08 11:59:35;;;;;;;8.43;2.78;;;28.80;52.70;;;;;;5047569;28;20533;-74
2021/12/08 12:02:41;;;;;;;6.30;1.88;;;28.80;52.70;;;;;;5062979;28;20023;-73
2021/12/08 12:05:55;;;;;;;12.93;3.03;;;28.90;52.90;;;;;;5065378;28;20044;-73
2021/12/08 12:09:02;;;;;;;5.00;2.22;;;28.90;53.00;;;;;;5065889;28;20090;-74
2021/12/08 12:12:08;;;;;;;4.18;1.90;;;29.00;53.10;;;;;;5062283;28;20027;-75
2021/12/08 12:15:14;;;;;;;7.00;2.70;;;29.00;52.40;;;;;;5060269;28;20032;-75
2021/12/08 12:18:20;;;;;;;6.68;2.00;;;29.10;52.70;;;;;;5066967;28;20479;-74
2021/12/08 12:21:38;;;;;;;12.15;2.45;;;29.10;52.50;;;;;;5058955;28;20029;-73
2021/12/08 12:24:32;;;;;;;9.48;2.85;;;29.10;52.40;;;;;;5011348;28;20033;-73
2021/12/08 12:27:40;;;;;;;7.03;2.55;;;29.10;52.30;;;;;;5064790;28;20021;-74
2021/12/08 12:30:09;;;;;;;14.75;2.60;;;29.10;52.20;;;;;;5061423;28;20021;-73
2021/12/08 12:32:45;;;;;;;5.97;2.60;;;29.10;52.60;;;;;;5045389;28;20028;-74
2021/12/08 12:35:54;;;;;;;12.63;3.05;;;29.10;52.20;;;;;;5068602;28;20036;-74
2021/12/08 12:39:00;;;;;;;13.90;3.13;;;29.20;52.50;;;;;;5065312;28;20017;-73
2021/12/08 12:41:58;;;;;;;9.70;3.53;;;29.20;52.90;;;;;;5044018;28;20043;-73
2021/12/08 12:45:06;;;;;;;9.45;2.90;;;29.20;53.10;;;;;;5064037;28;20029;-75
2021/12/08 12:48:29;;;;;;;14.43;3.42;;;29.20;53.30;;;;;;5059041;28;20041;-74
2021/12/08 12:51:26;;;;;;;11.95;2.75;;;29.20;53.50;;;;;;5063360;28;20020;-76
2021/12/08 12:54:32;;;;;;;7.88;3.00;;;29.20;53.30;;;;;;5065883;28;20090;-73
2021/12/08 12:57:38;;;;;;;14.02;3.05;;;29.20;53.40;;;;;;5060058;28;20033;-73
2021/12/08 13:00:44;;;;;;;9.80;2.60;;;29.10;53.30;;;;;;5063415;28;20506;-75
2021/12/08 13:03:56;;;;;;;10.95;3.70;;;29.10;53.40;;;;;;5061813;28;20032;-74
2021/12/08 13:07:07;;;;;;;14.90;3.47;;;29.10;53.40;;;;;;5065399;28;20032;-73
2021/12/08 13:09:36;;;;;;;13.80;3.40;;;29.00;53.80;;;;;;5059253;28;20365;-74
2021/12/08 13:12:32;;;;;;;12.32;3.63;;;28.90;53.70;;;;;;5062910;28;20056;-73
2021/12/08 13:15:36;;;;;;;12.55;2.50;;;28.90;54.40;;;;;;5067649;28;20036;-73
2021/12/08 13:18:06;;;;;;;12.82;2.92;;;28.90;53.70;;;;;;5067249;28;20559;-73
2021/12/08 13:21:15;;;;;;;9.77;3.25;;;28.80;53.50;;;;;;5063528;28;20377;-73
2021/12/08 13:24:21;;;;;;;10.27;2.72;;;28.90;53.80;;;;;;5069955;28;20035;-74
2021/12/08 13:27:29;;;;;;;12.23;2.85;;;28.80;54.00;;;;;;5069476;28;20056;-74
2021/12/08 13:30:51;;;;;;;8.27;3.30;;;28.80;54.10;;;;;;5065958;28;20024;-75
2021/12/08 13:33:52;;;;;;;19.02;4.95;;;28.70;53.80;;;;;;5066330;28;20032;-74
2021/12/08 13:36:31;;;;;;;7.97;2.83;;;28.50;54.40;;;;;;5069644;28;20027;-73
2021/12/08 13:38:57;;;;;;;10.13;3.35;;;28.50;54.40;;;;;;5042815;28;20067;-74
2021/12/08 13:42:03;;;;;;;10.95;2.90;;;28.50;54.50;;;;;;5065485;28;20029;-73
2021/12/08 13:45:24;;;;;;;13.80;3.50;;;28.50;54.40;;;;;;5067319;28;20032;-74
2021/12/08 13:48:30;;;;;;;8.60;2.58;;;28.40;54.30;;;;;;5064892;28;20044;-75
2021/12/08 13:51:38;;;;;;;17.45;4.18;;;28.30;55.10;;;;;;5069580;28;20019;-74
2021/12/08 13:54:43;;;;;;;9.80;3.40;;;28.30;55.10;;;;;;5070034;28;20395;-73
2021/12/08 13:58:07;;;;;;;10.75;3.28;;;28.20;55.30;;;;;;5070393;28;20032;-73
2021/12/08 14:01:09;;;;;;;8.30;3.55;;;28.20;55.50;;;;;;5061295;28;20056;-73
2021/12/08 14:04:15;;;;;;;8.18;2.92;;;28.20;55.50;;;;;;5068434;28;20067;-75
2021/12/08 14:07:21;;;;;;;12.73;3.42;;;28.30;55.70;;;;;;5068547;28;20488;-75
2021/12/08 14:10:08;;;;;;;13.73;3.10;;;28.20;55.40;;;;;;5065802;28;20032;-73
2021/12/08 14:13:09;;;;;;;12.80;3.95;;;28.20;55.40;;;;;;5069105;28;20035;-73
2021/12/08 14:16:21;;;;;;;27.15;4.68;;;28.10;55.70;;;;;;5065382;28;20029;-73